sensor_id;sensor_type;location;lat;lon;timestamp;pressure;altitude;pressure_sealevel;temperature;humidity
2401;BME280;1211;43.200;27.914;2022-08-01T00:01:52;100540.75;;;22.31;100.00
2401;BME280;1211;43.200;27.914;2022-08-01T00:04:19;100538.38;;;22.26;100.00
2401;BME280;1211;43.200;27.914;2022-08-01T00:06:47;100537.97;;;22.24;100.00
2401;BME280;1211;43.200;27.914;2022-08-01T00:09:14;100538.84;;;22.17;100.00
2401;BME280;1211;43.200;27.914;2022-08-01T00:11:41;100537.25;;;22.12;100.00
2401;BME280;1211;43.200;27.914;2022-08-01T00:14:08;100534.94;;;22.04;100.00
2401;BME280;1211;43.200;27.914;2022-08-01T00:16:36;100528.47;;;22.10;100.00
2401;BME280;1211;43.200;27.914;2022-08-01T00:19:03;100526.03;;;22.12;100.00
2401;BME280;1211;43.200;27.914;2022-08-01T00:21:30;100530.81;;;22.19;100.00
2401;BME280;1211;43.200;27.914;2022-08-01T00:23:58;100521.66;;;22.11;100.00
2401;BME280;1211;43.200;27.914;2022-08-01T00:26:25;100522.94;;;22.00;100.00
2401;BME280;1211;43.200;27.914;2022-08-01T00:28:52;100518.06;;;22.07;100.00
2401;BME280;1211;43.200;27.914;2022-08-01T00:31:19;100521.31;;;22.02;100.00
2401;BME280;1211;43.200;27.914;2022-08-01T00:33:46;100508.53;;;21.98;100.00
2401;BME280;1211;43.200;27.914;2022-08-01T00:36:13;100511.66;;;22.07;100.00
2401;BME280;1211;43.200;27.914;2022-08-01T00:38:40;100506.13;;;21.96;100.00
2401;BME280;1211;43.200;27.914;2022-08-01T00:41:08;100518.53;;;21.92;100.00
2401;BME280;1211;43.200;27.914;2022-08-01T00:43:35;100503.81;;;21.73;100.00
2401;BME280;1211;43.200;27.914;2022-08-01T00:46:01;100509.78;;;21.79;100.00
2401;BME280;1211;43.200;27.914;2022-08-01T00:48:28;100518.25;;;21.75;100.00
2401;BME280;1211;43.200;27.914;2022-08-01T00:50:55;100503.03;;;21.76;100.00
2401;BME280;1211;43.200;27.914;2022-08-01T00:53:22;100506.63;;;21.73;100.00
2401;BME280;1211;43.200;27.914;2022-08-01T00:55:50;100514.22;;;21.73;100.00
2401;BME280;1211;43.200;27.914;2022-08-01T00:58:19;100515.38;;;21.86;100.00
2401;BME280;1211;43.200;27.914;2022-08-01T01:00:46;100517.41;;;21.82;100.00
2401;BME280;1211;43.200;27.914;2022-08-01T01:03:13;100505.41;;;21.74;100.00
2401;BME280;1211;43.200;27.914;2022-08-01T01:05:45;100510.59;;;21.79;100.00
2401;BME280;1211;43.200;27.914;2022-08-01T01:08:19;100512.59;;;21.79;100.00
2401;BME280;1211;43.200;27.914;2022-08-01T01:10:55;100515.72;;;21.92;100.00
2401;BME280;1211;43.200;27.914;2022-08-01T01:13:29;100510.56;;;21.83;100.00
2401;BME280;1211;43.200;27.914;2022-08-01T01:16:02;100511.72;;;21.89;100.00
2401;BME280;1211;43.200;27.914;2022-08-01T01:18:35;100508.56;;;21.87;100.00
2401;BME280;1211;43.200;27.914;2022-08-01T01:21:11;100508.63;;;21.73;100.00
2401;BME280;1211;43.200;27.914;2022-08-01T01:23:48;100511.09;;;21.64;100.00
2401;BME280;1211;43.200;27.914;2022-08-01T01:26:40;100498.69;;;21.65;100.00
2401;BME280;1211;43.200;27.914;2022-08-01T01:29:16;100504.69;;;21.63;100.00
2401;BME280;1211;43.200;27.914;2022-08-01T01:31:48;100502.31;;;21.55;100.00
2401;BME280;1211;43.200;27.914;2022-08-01T01:34:19;100505.09;;;21.62;100.00
2401;BME280;1211;43.200;27.914;2022-08-01T01:36:48;100508.72;;;21.59;100.00
2401;BME280;1211;43.200;27.914;2022-08-01T01:39:16;100496.75;;;21.44;100.00
2401;BME280;1211;43.200;27.914;2022-08-01T01:41:45;100495.94;;;21.51;100.00
2401;BME280;1211;43.200;27.914;2022-08-01T01:44:15;100496.50;;;22.49;100.00
2401;BME280;1211;43.200;27.914;2022-08-01T01:46:43;100497.34;;;21.87;100.00
2401;BME280;1211;43.200;27.914;2022-08-01T01:49:11;100507.06;;;22.31;100.00
2401;BME280;1211;43.200;27.914;2022-08-01T01:51:40;100509.78;;;22.41;100.00
2401;BME280;1211;43.200;27.914;2022-08-01T01:54:08;100504.81;;;22.63;100.00
2401;BME280;1211;43.200;27.914;2022-08-01T01:56:37;100500.41;;;22.62;100.00
2401;BME280;1211;43.200;27.914;2022-08-01T01:59:18;100504.97;;;21.83;100.00
2401;BME280;1211;43.200;27.914;2022-08-01T02:01:46;100506.22;;;21.71;100.00
2401;BME280;1211;43.200;27.914;2022-08-01T02:04:16;100510.22;;;21.74;100.00
2401;BME280;1211;43.200;27.914;2022-08-01T02:06:43;100511.84;;;21.75;100.00
2401;BME280;1211;43.200;27.914;2022-08-01T02:09:14;100506.91;;;21.90;100.00
2401;BME280;1211;43.200;27.914;2022-08-01T02:11:43;100507.88;;;21.62;100.00
2401;BME280;1211;43.200;27.914;2022-08-01T02:14:11;100515.06;;;21.70;100.00
2401;BME280;1211;43.200;27.914;2022-08-01T02:16:44;100503.84;;;21.70;100.00
2401;BME280;1211;43.200;27.914;2022-08-01T02:19:11;100519.06;;;21.69;100.00
2401;BME280;1211;43.200;27.914;2022-08-01T02:21:44;100511.06;;;21.71;100.00
2401;BME280;1211;43.200;27.914;2022-08-01T02:24:14;100514.69;;;21.64;100.00
2401;BME280;1211;43.200;27.914;2022-08-01T02:26:47;100509.09;;;21.61;100.00
2401;BME280;1211;43.200;27.914;2022-08-01T02:29:22;100527.53;;;21.58;100.00
2401;BME280;1211;43.200;27.914;2022-08-01T02:31:54;100509.50;;;21.63;100.00
2401;BME280;1211;43.200;27.914;2022-08-01T02:34:22;100516.72;;;21.57;100.00
2401;BME280;1211;43.200;27.914;2022-08-01T02:36:52;100518.81;;;23.08;100.00
2401;BME280;1211;43.200;27.914;2022-08-01T02:39:22;100513.44;;;22.83;100.00
2401;BME280;1211;43.200;27.914;2022-08-01T02:41:53;100521.44;;;22.88;100.00
2401;BME280;1211;43.200;27.914;2022-08-01T02:44:24;100514.41;;;23.40;100.00
2401;BME280;1211;43.200;27.914;2022-08-01T02:46:58;100514.34;;;21.52;100.00
2401;BME280;1211;43.200;27.914;2022-08-01T02:49:30;100519.97;;;21.45;100.00
2401;BME280;1211;43.200;27.914;2022-08-01T02:51:59;100533.63;;;21.35;100.00
2401;BME280;1211;43.200;27.914;2022-08-01T02:54:28;100524.00;;;21.40;100.00
2401;BME280;1211;43.200;27.914;2022-08-01T02:56:56;100522.38;;;21.43;100.00
2401;BME280;1211;43.200;27.914;2022-08-01T02:59:24;100516.81;;;21.39;100.00
2401;BME280;1211;43.200;27.914;2022-08-01T03:01:55;100522.34;;;21.57;100.00
2401;BME280;1211;43.200;27.914;2022-08-01T03:04:24;100526.34;;;21.49;100.00
2401;BME280;1211;43.200;27.914;2022-08-01T03:06:53;100528.38;;;21.52;100.00
2401;BME280;1211;43.200;27.914;2022-08-01T03:09:21;100524.75;;;21.51;100.00
2401;BME280;1211;43.200;27.914;2022-08-01T03:11:49;100530.78;;;21.46;100.00
2401;BME280;1211;43.200;27.914;2022-08-01T03:14:18;100528.75;;;21.54;100.00
2401;BME280;1211;43.200;27.914;2022-08-01T03:16:47;100534.38;;;21.54;100.00
2401;BME280;1211;43.200;27.914;2022-08-01T03:19:18;100531.56;;;21.54;100.00
2401;BME280;1211;43.200;27.914;2022-08-01T03:21:46;100531.16;;;21.59;100.00
2401;BME280;1211;43.200;27.914;2022-08-01T03:24:15;100536.78;;;21.52;100.00
2401;BME280;1211;43.200;27.914;2022-08-01T03:26:43;100529.09;;;21.66;100.00
2401;BME280;1211;43.200;27.914;2022-08-01T03:29:14;100530.31;;;21.65;100.00
2401;BME280;1211;43.200;27.914;2022-08-01T03:31:43;100541.53;;;21.55;100.00
2401;BME280;1211;43.200;27.914;2022-08-01T03:34:11;100541.56;;;21.51;100.00
2401;BME280;1211;43.200;27.914;2022-08-01T03:36:43;100548.78;;;21.52;100.00
2401;BME280;1211;43.200;27.914;2022-08-01T03:39:12;100544.72;;;21.64;100.00
2401;BME280;1211;43.200;27.914;2022-08-01T03:41:45;100544.75;;;21.57;100.00
2401;BME280;1211;43.200;27.914;2022-08-01T03:44:14;100534.78;;;21.45;100.00
2401;BME280;1211;43.200;27.914;2022-08-01T03:46:45;100537.19;;;21.54;100.00
2401;BME280;1211;43.200;27.914;2022-08-01T03:49:16;100533.94;;;21.59;100.00
2401;BME280;1211;43.200;27.914;2022-08-01T03:51:47;100532.34;;;21.58;100.00
2401;BME280;1211;43.200;27.914;2022-08-01T03:54:16;100520.34;;;21.57;100.00
2401;BME280;1211;43.200;27.914;2022-08-01T03:56:46;100519.88;;;21.69;100.00
2401;BME280;1211;43.200;27.914;2022-08-01T03:59:14;100517.91;;;21.63;100.00
2401;BME280;1211;43.200;27.914;2022-08-01T04:01:44;100522.94;;;21.89;100.00
2401;BME280;1211;43.200;27.914;2022-08-01T04:04:11;100522.22;;;21.78;100.00
2401;BME280;1211;43.200;27.914;2022-08-01T04:06:39;100523.09;;;21.64;100.00
2401;BME280;1211;43.200;27.914;2022-08-01T04:09:08;100520.53;;;21.91;100.00
2401;BME280;1211;43.200;27.914;2022-08-01T04:11:35;100529.69;;;22.09;100.00
2401;BME280;1211;43.200;27.914;2022-08-01T04:14:02;100515.22;;;22.14;100.00
2401;BME280;1211;43.200;27.914;2022-08-01T04:16:29;100520.50;;;22.57;100.00
2401;BME280;1211;43.200;27.914;2022-08-01T04:18:56;100511.34;;;23.28;100.00
2401;BME280;1211;43.200;27.914;2022-08-01T04:21:25;100508.06;;;23.33;100.00
2401;BME280;1211;43.200;27.914;2022-08-01T04:23:54;100515.22;;;23.41;100.00
2401;BME280;1211;43.200;27.914;2022-08-01T04:26:24;100505.28;;;23.94;100.00
2401;BME280;1211;43.200;27.914;2022-08-01T04:28:53;100520.50;;;24.27;100.00
2401;BME280;1211;43.200;27.914;2022-08-01T04:31:22;100498.31;;;24.02;100.00
2401;BME280;1211;43.200;27.914;2022-08-01T04:33:53;100502.91;;;24.69;100.00
2401;BME280;1211;43.200;27.914;2022-08-01T04:36:23;100512.44;;;24.75;100.00
2401;BME280;1211;43.200;27.914;2022-08-01T04:38:53;100518.88;;;24.99;100.00
2401;BME280;1211;43.200;27.914;2022-08-01T04:41:23;100522.78;;;24.82;100.00
2401;BME280;1211;43.200;27.914;2022-08-01T04:43:51;100517.59;;;25.23;100.00
2401;BME280;1211;43.200;27.914;2022-08-01T04:46:20;100516.72;;;25.46;100.00
2401;BME280;1211;43.200;27.914;2022-08-01T04:48:48;100517.47;;;25.50;100.00
2401;BME280;1211;43.200;27.914;2022-08-01T04:51:16;100514.97;;;25.52;97.09
2401;BME280;1211;43.200;27.914;2022-08-01T04:53:47;100513.97;;;25.82;99.68
2401;BME280;1211;43.200;27.914;2022-08-01T04:56:16;100518.34;;;25.67;94.33
2401;BME280;1211;43.200;27.914;2022-08-01T04:58:44;100523.75;;;25.38;95.45
2401;BME280;1211;43.200;27.914;2022-08-01T05:01:12;100515.59;;;26.15;93.34
2401;BME280;1211;43.200;27.914;2022-08-01T05:03:39;100515.78;;;27.05;90.15
2401;BME280;1211;43.200;27.914;2022-08-01T05:06:06;100524.75;;;26.55;87.92
2401;BME280;1211;43.200;27.914;2022-08-01T05:08:33;100526.94;;;26.64;84.92
2401;BME280;1211;43.200;27.914;2022-08-01T05:11:01;100521.53;;;27.31;82.06
2401;BME280;1211;43.200;27.914;2022-08-01T05:13:28;100529.78;;;26.48;82.89
2401;BME280;1211;43.200;27.914;2022-08-01T05:15:57;100519.91;;;27.17;81.65
2401;BME280;1211;43.200;27.914;2022-08-01T05:18:24;100514.50;;;27.52;78.53
2401;BME280;1211;43.200;27.914;2022-08-01T05:20:50;100517.94;;;27.43;76.96
2401;BME280;1211;43.200;27.914;2022-08-01T05:23:17;100525.75;;;27.39;77.56
2401;BME280;1211;43.200;27.914;2022-08-01T05:25:44;100525.84;;;27.64;76.87
2401;BME280;1211;43.200;27.914;2022-08-01T05:28:11;100534.31;;;28.31;73.95
2401;BME280;1211;43.200;27.914;2022-08-01T05:30:39;100535.50;;;28.81;71.58
2401;BME280;1211;43.200;27.914;2022-08-01T05:33:07;100530.19;;;27.81;72.41
2401;BME280;1211;43.200;27.914;2022-08-01T05:35:34;100532.34;;;27.48;73.23
2401;BME280;1211;43.200;27.914;2022-08-01T05:38:01;100526.00;;;28.11;72.04
2401;BME280;1211;43.200;27.914;2022-08-01T05:40:28;100533.06;;;28.19;71.53
2401;BME280;1211;43.200;27.914;2022-08-01T05:42:54;100518.94;;;27.36;71.79
2401;BME280;1211;43.200;27.914;2022-08-01T05:45:21;100524.34;;;28.14;72.59
2401;BME280;1211;43.200;27.914;2022-08-01T05:47:48;100535.75;;;28.48;69.76
2401;BME280;1211;43.200;27.914;2022-08-01T05:50:17;100526.34;;;28.51;71.37
2401;BME280;1211;43.200;27.914;2022-08-01T05:52:43;100525.91;;;30.18;64.94
2401;BME280;1211;43.200;27.914;2022-08-01T05:55:11;100530.78;;;28.99;66.73
2401;BME280;1211;43.200;27.914;2022-08-01T05:57:38;100540.56;;;28.26;66.33
2401;BME280;1211;43.200;27.914;2022-08-01T06:00:06;100532.56;;;28.59;67.16
2401;BME280;1211;43.200;27.914;2022-08-01T06:02:33;100530.31;;;28.28;65.60
2401;BME280;1211;43.200;27.914;2022-08-01T06:05:00;100522.03;;;29.06;66.24
2401;BME280;1211;43.200;27.914;2022-08-01T06:07:28;100524.03;;;29.62;62.52
2401;BME280;1211;43.200;27.914;2022-08-01T06:09:55;100518.44;;;30.02;63.16
2401;BME280;1211;43.200;27.914;2022-08-01T06:12:22;100521.66;;;30.13;62.88
2401;BME280;1211;43.200;27.914;2022-08-01T06:14:48;100520.09;;;30.61;60.30
2401;BME280;1211;43.200;27.914;2022-08-01T06:17:15;100514.78;;;31.18;59.64
2401;BME280;1211;43.200;27.914;2022-08-01T06:19:42;100527.22;;;30.26;59.93
2401;BME280;1211;43.200;27.914;2022-08-01T06:22:09;100505.88;;;29.81;61.72
2401;BME280;1211;43.200;27.914;2022-08-01T06:24:37;100514.69;;;30.54;59.35
2401;BME280;1211;43.200;27.914;2022-08-01T06:27:04;100512.16;;;29.33;61.82
2401;BME280;1211;43.200;27.914;2022-08-01T06:29:31;100497.06;;;29.88;60.66
2401;BME280;1211;43.200;27.914;2022-08-01T06:31:58;100484.47;;;29.68;60.46
2401;BME280;1211;43.200;27.914;2022-08-01T06:34:25;100488.88;;;29.91;61.01
2401;BME280;1211;43.200;27.914;2022-08-01T06:36:51;100508.22;;;30.54;59.26
2401;BME280;1211;43.200;27.914;2022-08-01T06:39:18;100478.91;;;29.33;60.69
2401;BME280;1211;43.200;27.914;2022-08-01T06:41:46;100490.59;;;29.35;61.75
2401;BME280;1211;43.200;27.914;2022-08-01T06:44:13;100498.41;;;29.75;60.32
2401;BME280;1211;43.200;27.914;2022-08-01T06:46:40;100503.31;;;30.05;60.72
2401;BME280;1211;43.200;27.914;2022-08-01T06:49:07;100498.06;;;30.44;57.93
2401;BME280;1211;43.200;27.914;2022-08-01T06:51:34;100504.66;;;31.44;56.70
2401;BME280;1211;43.200;27.914;2022-08-01T06:54:01;100499.38;;;32.21;56.01
2401;BME280;1211;43.200;27.914;2022-08-01T06:56:28;100502.91;;;32.07;56.25
2401;BME280;1211;43.200;27.914;2022-08-01T06:58:56;100493.63;;;32.30;54.03
2401;BME280;1211;43.200;27.914;2022-08-01T07:01:26;100485.03;;;32.07;52.39
2401;BME280;1211;43.200;27.914;2022-08-01T07:03:53;100496.03;;;29.73;55.58
2401;BME280;1211;43.200;27.914;2022-08-01T07:06:20;100497.53;;;31.40;55.16
2401;BME280;1211;43.200;27.914;2022-08-01T07:08:47;100494.53;;;30.98;55.09
2401;BME280;1211;43.200;27.914;2022-08-01T07:11:14;100495.75;;;31.70;53.66
2401;BME280;1211;43.200;27.914;2022-08-01T07:13:41;100477.91;;;31.42;52.20
2401;BME280;1211;43.200;27.914;2022-08-01T07:16:09;100489.38;;;31.84;50.81
2401;BME280;1211;43.200;27.914;2022-08-01T07:18:36;100482.53;;;31.30;52.24
2401;BME280;1211;43.200;27.914;2022-08-01T07:21:03;100487.00;;;30.37;55.05
2401;BME280;1211;43.200;27.914;2022-08-01T07:23:30;100495.97;;;31.30;53.02
2401;BME280;1211;43.200;27.914;2022-08-01T07:25:57;100478.03;;;31.66;52.84
2401;BME280;1211;43.200;27.914;2022-08-01T07:28:24;100487.50;;;33.47;49.07
2401;BME280;1211;43.200;27.914;2022-08-01T07:30:51;100497.97;;;33.95;48.63
2401;BME280;1211;43.200;27.914;2022-08-01T07:33:19;100502.72;;;33.83;48.50
2401;BME280;1211;43.200;27.914;2022-08-01T07:35:46;100509.06;;;32.15;50.80
2401;BME280;1211;43.200;27.914;2022-08-01T07:38:13;100511.38;;;34.03;47.36
2401;BME280;1211;43.200;27.914;2022-08-01T07:40:42;100512.03;;;33.98;46.34
2401;BME280;1211;43.200;27.914;2022-08-01T07:43:09;100528.00;;;34.89;45.71
2401;BME280;1211;43.200;27.914;2022-08-01T07:45:36;100521.75;;;35.11;45.37
2401;BME280;1211;43.200;27.914;2022-08-01T07:48:04;100511.97;;;35.43;43.63
2401;BME280;1211;43.200;27.914;2022-08-01T07:50:32;100511.28;;;35.54;44.11
2401;BME280;1211;43.200;27.914;2022-08-01T07:53:00;100514.16;;;35.54;43.22
2401;BME280;1211;43.200;27.914;2022-08-01T07:55:27;100514.69;;;34.86;44.11
2401;BME280;1211;43.200;27.914;2022-08-01T07:57:54;100525.38;;;33.57;44.92
2401;BME280;1211;43.200;27.914;2022-08-01T08:00:21;100516.81;;;34.91;43.90
2401;BME280;1211;43.200;27.914;2022-08-01T08:02:48;100526.75;;;36.56;42.17
2401;BME280;1211;43.200;27.914;2022-08-01T08:05:15;100515.78;;;34.54;43.06
2401;BME280;1211;43.200;27.914;2022-08-01T08:07:43;100517.84;;;36.49;41.78
2401;BME280;1211;43.200;27.914;2022-08-01T08:10:10;100518.41;;;34.92;42.96
2401;BME280;1211;43.200;27.914;2022-08-01T08:12:37;100523.69;;;36.65;41.33
2401;BME280;1211;43.200;27.914;2022-08-01T08:15:04;100525.69;;;36.96;40.87
2401;BME280;1211;43.200;27.914;2022-08-01T08:17:32;100531.75;;;37.15;40.29
2401;BME280;1211;43.200;27.914;2022-08-01T08:19:59;100529.03;;;37.60;40.00
2401;BME280;1211;43.200;27.914;2022-08-01T08:22:26;100536.97;;;37.11;39.71
2401;BME280;1211;43.200;27.914;2022-08-01T08:24:54;100526.66;;;36.82;39.73
2401;BME280;1211;43.200;27.914;2022-08-01T08:27:21;100529.09;;;36.58;39.11
2401;BME280;1211;43.200;27.914;2022-08-01T08:29:48;100524.84;;;38.50;38.50
2401;BME280;1211;43.200;27.914;2022-08-01T08:32:14;100527.38;;;38.81;37.36
2401;BME280;1211;43.200;27.914;2022-08-01T08:34:41;100535.25;;;34.50;41.01
2401;BME280;1211;43.200;27.914;2022-08-01T08:37:08;100537.94;;;35.60;40.32
2401;BME280;1211;43.200;27.914;2022-08-01T08:39:36;100533.66;;;36.33;39.92
2401;BME280;1211;43.200;27.914;2022-08-01T08:42:06;100531.59;;;36.82;39.20
2401;BME280;1211;43.200;27.914;2022-08-01T08:44:33;100527.78;;;36.53;39.27
2401;BME280;1211;43.200;27.914;2022-08-01T08:47:03;100519.16;;;36.53;39.94
2401;BME280;1211;43.200;27.914;2022-08-01T08:49:32;100530.78;;;36.33;40.02
2401;BME280;1211;43.200;27.914;2022-08-01T08:52:00;100530.88;;;36.44;38.98
2401;BME280;1211;43.200;27.914;2022-08-01T08:54:29;100530.50;;;35.48;39.84
2401;BME280;1211;43.200;27.914;2022-08-01T08:56:57;100533.31;;;36.20;39.22
2401;BME280;1211;43.200;27.914;2022-08-01T08:59:26;100521.91;;;35.22;41.27
2401;BME280;1211;43.200;27.914;2022-08-01T09:01:54;100513.91;;;36.09;39.81
2401;BME280;1211;43.200;27.914;2022-08-01T09:04:21;100520.13;;;37.58;38.59
2401;BME280;1211;43.200;27.914;2022-08-01T09:06:49;100518.34;;;38.21;37.61
2401;BME280;1211;43.200;27.914;2022-08-01T09:09:16;100516.28;;;36.53;39.46
2401;BME280;1211;43.200;27.914;2022-08-01T09:11:43;100503.41;;;37.67;38.37
2401;BME280;1211;43.200;27.914;2022-08-01T09:14:12;100508.03;;;37.26;37.75
2401;BME280;1211;43.200;27.914;2022-08-01T09:16:42;100502.66;;;36.85;39.54
2401;BME280;1211;43.200;27.914;2022-08-01T09:19:12;100510.56;;;36.53;38.54
2401;BME280;1211;43.200;27.914;2022-08-01T09:21:39;100498.72;;;37.86;37.21
2401;BME280;1211;43.200;27.914;2022-08-01T09:24:14;100503.22;;;35.27;39.04
2401;BME280;1211;43.200;27.914;2022-08-01T09:26:42;100493.94;;;33.72;40.83
2401;BME280;1211;43.200;27.914;2022-08-01T09:29:22;100496.91;;;35.02;40.71
2401;BME280;1211;43.200;27.914;2022-08-01T09:31:51;100511.94;;;36.21;39.52
2401;BME280;1211;43.200;27.914;2022-08-01T09:34:24;100516.41;;;36.27;37.82
2401;BME280;1211;43.200;27.914;2022-08-01T09:36:53;100498.44;;;37.90;37.35
2401;BME280;1211;43.200;27.914;2022-08-01T09:39:22;100496.75;;;37.11;37.65
2401;BME280;1211;43.200;27.914;2022-08-01T09:41:50;100501.00;;;38.44;35.88
2401;BME280;1211;43.200;27.914;2022-08-01T09:44:18;100498.03;;;38.77;35.35
2401;BME280;1211;43.200;27.914;2022-08-01T09:46:51;100498.50;;;39.50;35.56
2401;BME280;1211;43.200;27.914;2022-08-01T09:49:28;100495.69;;;37.03;36.04
2401;BME280;1211;43.200;27.914;2022-08-01T09:51:55;100482.34;;;34.25;39.86
2401;BME280;1211;43.200;27.914;2022-08-01T09:54:31;100489.72;;;35.84;37.90
2401;BME280;1211;43.200;27.914;2022-08-01T09:57:09;100487.06;;;37.08;37.05
2401;BME280;1211;43.200;27.914;2022-08-01T09:59:36;100482.16;;;38.43;36.43
2401;BME280;1211;43.200;27.914;2022-08-01T10:02:07;100492.66;;;39.14;36.17
2401;BME280;1211;43.200;27.914;2022-08-01T10:04:35;100507.94;;;40.40;33.93
2401;BME280;1211;43.200;27.914;2022-08-01T10:07:06;100506.09;;;36.95;36.66
2401;BME280;1211;43.200;27.914;2022-08-01T10:09:35;100491.16;;;37.67;35.34
2401;BME280;1211;43.200;27.914;2022-08-01T10:12:03;100513.81;;;37.37;35.34
2401;BME280;1211;43.200;27.914;2022-08-01T10:14:31;100504.38;;;38.70;35.55
2401;BME280;1211;43.200;27.914;2022-08-01T10:17:00;100492.97;;;37.75;35.63
2401;BME280;1211;43.200;27.914;2022-08-01T10:19:29;100496.03;;;39.19;34.18
2401;BME280;1211;43.200;27.914;2022-08-01T10:21:58;100504.06;;;38.79;34.59
2401;BME280;1211;43.200;27.914;2022-08-01T10:24:27;100501.53;;;39.17;33.98
2401;BME280;1211;43.200;27.914;2022-08-01T10:26:57;100492.53;;;35.79;37.43
2401;BME280;1211;43.200;27.914;2022-08-01T10:29:31;100487.72;;;38.07;35.88
2401;BME280;1211;43.200;27.914;2022-08-01T10:32:01;100497.13;;;36.76;36.60
2401;BME280;1211;43.200;27.914;2022-08-01T10:34:31;100482.88;;;35.04;38.89
2401;BME280;1211;43.200;27.914;2022-08-01T10:36:58;100480.59;;;33.98;39.63
2401;BME280;1211;43.200;27.914;2022-08-01T10:39:25;100476.19;;;33.82;41.45
2401;BME280;1211;43.200;27.914;2022-08-01T10:41:54;100477.75;;;33.25;41.99
2401;BME280;1211;43.200;27.914;2022-08-01T10:44:23;100475.59;;;35.03;40.76
2401;BME280;1211;43.200;27.914;2022-08-01T10:46:54;100473.53;;;35.81;37.92
2401;BME280;1211;43.200;27.914;2022-08-01T10:49:26;100474.34;;;34.29;40.70
2401;BME280;1211;43.200;27.914;2022-08-01T10:51:55;100468.66;;;35.62;39.82
2401;BME280;1211;43.200;27.914;2022-08-01T10:54:24;100479.66;;;36.74;38.68
2401;BME280;1211;43.200;27.914;2022-08-01T10:56:52;100481.31;;;35.75;38.71
2401;BME280;1211;43.200;27.914;2022-08-01T10:59:22;100484.31;;;35.66;39.06
2401;BME280;1211;43.200;27.914;2022-08-01T11:01:56;100473.50;;;35.50;39.49
2401;BME280;1211;43.200;27.914;2022-08-01T11:04:33;100484.03;;;34.92;40.27
2401;BME280;1211;43.200;27.914;2022-08-01T11:07:07;100485.00;;;35.81;39.47
2401;BME280;1211;43.200;27.914;2022-08-01T11:09:42;100473.44;;;35.19;39.25
2401;BME280;1211;43.200;27.914;2022-08-01T11:12:11;100473.91;;;34.01;41.58
2401;BME280;1211;43.200;27.914;2022-08-01T11:15:17;100469.25;;;34.39;39.86
2401;BME280;1211;43.200;27.914;2022-08-01T11:17:50;100465.41;;;34.07;41.93
2401;BME280;1211;43.200;27.914;2022-08-01T11:20:18;100467.25;;;33.75;40.45
2401;BME280;1211;43.200;27.914;2022-08-01T11:26:13;100471.00;;;35.11;40.56
2401;BME280;1211;43.200;27.914;2022-08-01T11:28:42;100458.34;;;34.57;39.81
2401;BME280;1211;43.200;27.914;2022-08-01T11:31:30;100455.28;;;35.27;39.47
2401;BME280;1211;43.200;27.914;2022-08-01T11:33:58;100457.03;;;35.71;38.59
2401;BME280;1211;43.200;27.914;2022-08-01T11:36:25;100456.31;;;35.24;38.35
2401;BME280;1211;43.200;27.914;2022-08-01T11:39:14;100458.41;;;35.24;38.43
2401;BME280;1211;43.200;27.914;2022-08-01T11:41:44;100461.50;;;36.14;39.40
2401;BME280;1211;43.200;27.914;2022-08-01T11:44:13;100454.91;;;36.99;37.95
2401;BME280;1211;43.200;27.914;2022-08-01T11:46:54;100451.38;;;37.48;38.12
2401;BME280;1211;43.200;27.914;2022-08-01T11:49:26;100455.78;;;34.59;38.76
2401;BME280;1211;43.200;27.914;2022-08-01T11:52:04;100453.22;;;35.53;39.82
2401;BME280;1211;43.200;27.914;2022-08-01T11:54:35;100454.97;;;37.21;37.23
2401;BME280;1211;43.200;27.914;2022-08-01T11:57:05;100451.75;;;36.86;37.53
2401;BME280;1211;43.200;27.914;2022-08-01T11:59:38;100444.66;;;36.81;38.64
2401;BME280;1211;43.200;27.914;2022-08-01T12:02:15;100458.28;;;36.01;39.23
2401;BME280;1211;43.200;27.914;2022-08-01T12:04:48;100450.16;;;36.79;37.62
2401;BME280;1211;43.200;27.914;2022-08-01T12:07:16;100455.63;;;35.92;37.67
2401;BME280;1211;43.200;27.914;2022-08-01T12:09:43;100447.38;;;37.07;37.80
2401;BME280;1211;43.200;27.914;2022-08-01T12:12:15;100452.97;;;37.83;36.45
2401;BME280;1211;43.200;27.914;2022-08-01T12:14:43;100438.13;;;36.21;38.16
2401;BME280;1211;43.200;27.914;2022-08-01T12:17:10;100432.13;;;36.25;37.58
2401;BME280;1211;43.200;27.914;2022-08-01T12:19:37;100448.56;;;35.87;38.26
2401;BME280;1211;43.200;27.914;2022-08-01T12:22:11;100434.44;;;35.01;38.71
2401;BME280;1211;43.200;27.914;2022-08-01T12:24:41;100434.19;;;35.25;39.83
2401;BME280;1211;43.200;27.914;2022-08-01T12:27:09;100424.34;;;33.89;39.99
2401;BME280;1211;43.200;27.914;2022-08-01T12:29:40;100432.94;;;34.85;40.29
2401;BME280;1211;43.200;27.914;2022-08-01T12:32:25;100436.28;;;35.04;38.83
2401;BME280;1211;43.200;27.914;2022-08-01T12:34:54;100426.63;;;33.41;41.06
2401;BME280;1211;43.200;27.914;2022-08-01T12:37:21;100422.03;;;34.08;41.15
2401;BME280;1211;43.200;27.914;2022-08-01T12:39:49;100417.06;;;35.30;40.64
2401;BME280;1211;43.200;27.914;2022-08-01T12:42:15;100415.44;;;35.55;39.87
2401;BME280;1211;43.200;27.914;2022-08-01T12:44:45;100430.66;;;34.69;41.45
2401;BME280;1211;43.200;27.914;2022-08-01T12:47:14;100423.66;;;34.50;40.86
2401;BME280;1211;43.200;27.914;2022-08-01T12:49:43;100422.94;;;34.55;40.44
2401;BME280;1211;43.200;27.914;2022-08-01T12:52:11;100416.19;;;34.98;39.94
2401;BME280;1211;43.200;27.914;2022-08-01T12:55:00;100408.50;;;34.44;39.55
2401;BME280;1211;43.200;27.914;2022-08-01T12:57:27;100413.75;;;34.91;40.09
2401;BME280;1211;43.200;27.914;2022-08-01T13:00:10;100415.84;;;35.42;39.84
2401;BME280;1211;43.200;27.914;2022-08-01T13:02:38;100407.44;;;36.02;38.50
2401;BME280;1211;43.200;27.914;2022-08-01T13:05:06;100404.22;;;36.25;37.72
2401;BME280;1211;43.200;27.914;2022-08-01T13:07:43;100405.34;;;35.97;39.02
2401;BME280;1211;43.200;27.914;2022-08-01T13:10:11;100397.94;;;35.22;44.17
2401;BME280;1211;43.200;27.914;2022-08-01T13:12:40;100403.91;;;34.31;41.05